Time;durP1;ratioP1;P1;durP2;ratioP2;P2;SDS_P1;SDS_P2;PMS_P1;PMS_P2;Temp;Humidity;BMP_temperature;BMP_pressure;BME280_temperature;BME280_humidity;BME280_pressure;Samples;Min_cycle;Max_cycle;Signal;HPM_P1;HPM_P2
2022/11/16 00:00:27;;;;;;;;;;;8.40;99.90;;;;;;5065979;28;19920;-68
2022/11/16 00:02:54;;;;;;;;;;;8.30;99.90;;;;;;5065861;28;19929;-68
2022/11/16 00:05:20;;;;;;;;;;;8.30;99.90;;;;;;5065674;28;19975;-69
2022/11/16 00:07:47;;;;;;;;;;;8.30;99.90;;;;;;5065583;28;19959;-68
2022/11/16 00:10:14;;;;;;;;;;;8.30;99.90;;;;;;5064440;28;20020;-68
2022/11/16 00:12:41;;;;;;;;;;;8.30;99.90;;;;;;5064949;28;19992;-70
2022/11/16 00:15:07;;;;;;;;;;;8.40;99.90;;;;;;5064587;28;19984;-68
2022/11/16 00:17:35;;;;;;;;;;;8.30;99.90;;;;;;5065120;28;19982;-68
2022/11/16 00:20:02;;;;;;;;;;;8.40;99.90;;;;;;5065421;28;19991;-68
2022/11/16 00:22:29;;;;;;;;;;;8.30;99.90;;;;;;5065211;28;19987;-68
2022/11/16 00:24:55;;;;;;;;;;;8.40;99.90;;;;;;5064983;28;19924;-68
2022/11/16 00:27:22;;;;;;;;;;;8.30;99.90;;;;;;5065634;28;19952;-68
2022/11/16 00:29:48;;;;;;;;;;;8.30;99.90;;;;;;5065168;28;20180;-68
2022/11/16 00:32:15;;;;;;;;;;;8.30;99.90;;;;;;5065557;28;19988;-68
2022/11/16 00:34:43;;;;;;;;;;;8.30;99.90;;;;;;5065029;28;19984;-68
2022/11/16 00:37:10;;;;;;;;;;;8.30;99.90;;;;;;5065226;28;20000;-68
2022/11/16 00:39:36;;;;;;;;;;;8.20;99.90;;;;;;5064896;28;19956;-68
2022/11/16 00:42:03;;;;;;;;;;;8.30;99.90;;;;;;5065135;28;19989;-68
2022/11/16 00:44:29;;;;;;;;;;;8.30;99.90;;;;;;5064767;28;20180;-70
2022/11/16 00:46:56;;;;;;;;;;;8.30;99.90;;;;;;5064942;28;19987;-68
2022/11/16 00:49:23;;;;;;;;;;;8.30;99.90;;;;;;5065032;28;19996;-68
2022/11/16 00:51:51;;;;;;;;;;;8.30;99.90;;;;;;5064555;28;20179;-67
2022/11/16 00:54:17;;;;;;;;;;;8.30;99.90;;;;;;5064896;28;19992;-69
2022/11/16 00:56:44;;;;;;;;;;;8.30;99.90;;;;;;5064222;28;19925;-68
2022/11/16 00:59:12;;;;;;;;;;;8.30;99.90;;;;;;5063900;28;19980;-68
2022/11/16 01:01:38;;;;;;;;;;;8.30;99.90;;;;;;5064847;28;19991;-68
2022/11/16 01:04:05;;;;;;;;;;;8.30;99.90;;;;;;5064506;28;20275;-68
2022/11/16 01:06:31;;;;;;;;;;;8.40;99.90;;;;;;5064394;28;20176;-68
2022/11/16 01:08:59;;;;;;;;;;;8.40;99.90;;;;;;5064611;28;19988;-68
2022/11/16 01:14:10;;;;;;;;;;;8.40;99.90;;;;;;5044424;28;19963;-70
2022/11/16 01:16:37;;;;;;;;;;;8.30;99.90;;;;;;5043998;28;19959;-68
2022/11/16 01:19:04;;;;;;;;;;;8.30;99.90;;;;;;5044500;28;19980;-67
2022/11/16 01:21:31;;;;;;;;;;;8.30;99.90;;;;;;5044166;28;20175;-68
2022/11/16 01:24:05;;;;;;;;;;;8.30;99.90;;;;;;5044416;28;19980;-68
2022/11/16 01:26:32;;;;;;;;;;;8.30;99.90;;;;;;5043820;28;20228;-68
2022/11/16 01:28:59;;;;;;;;;;;8.30;99.90;;;;;;5044322;28;19959;-68
2022/11/16 01:31:25;;;;;;;;;;;8.30;99.90;;;;;;5044038;28;19960;-68
2022/11/16 01:33:52;;;;;;;;;;;8.30;99.90;;;;;;5044246;28;19959;-68
2022/11/16 01:36:19;;;;;;;;;;;8.30;99.90;;;;;;5043954;28;19988;-68
2022/11/16 01:38:46;;;;;;;;;;;8.20;99.90;;;;;;5044135;28;20157;-68
2022/11/16 01:41:15;;;;;;;;;;;8.30;99.90;;;;;;5044258;28;19952;-68
2022/11/16 01:43:52;;;;;;;;;;;8.30;99.90;;;;;;5044040;28;19991;-69
2022/11/16 01:46:19;;;;;;;;;;;8.30;99.90;;;;;;5043696;28;19979;-68
2022/11/16 01:48:46;;;;;;;;;;;8.30;99.90;;;;;;5051288;28;19959;-69
2022/11/16 01:51:13;;;;;;;;;;;8.30;99.90;;;;;;5063843;28;19952;-68
2022/11/16 01:53:40;;;;;;;;;;;8.30;99.90;;;;;;5063910;28;19987;-68
2022/11/16 01:56:07;;;;;;;;;;;8.30;99.90;;;;;;5063526;28;19984;-69
2022/11/16 01:58:36;;;;;;;;;;;8.30;99.90;;;;;;5062852;28;19929;-68
2022/11/16 02:01:03;;;;;;;;;;;8.30;99.90;;;;;;5063914;28;19963;-69
2022/11/16 02:03:29;;;;;;;;;;;8.30;99.90;;;;;;5063562;28;19983;-68
2022/11/16 02:06:03;;;;;;;;;;;8.30;99.90;;;;;;5063460;28;19921;-69
2022/11/16 02:11:42;;;;;;;;;;;8.30;99.90;;;;;;5063507;28;19928;-68
2022/11/16 02:14:15;;;;;;;;;;;8.30;99.90;;;;;;5063168;28;19963;-68
2022/11/16 02:16:47;;;;;;;;;;;8.30;99.90;;;;;;5063022;28;19987;-68
2022/11/16 02:19:24;;;;;;;;;;;8.30;99.90;;;;;;5062652;28;20208;-68
2022/11/16 02:21:57;;;;;;;;;;;8.30;99.90;;;;;;5063203;28;19980;-69
2022/11/16 02:24:42;;;;;;;;;;;8.30;99.90;;;;;;5063602;28;20160;-68
2022/11/16 02:27:16;;;;;;;;;;;8.30;99.90;;;;;;5063464;28;19920;-68
2022/11/16 02:29:45;;;;;;;;;;;8.30;99.90;;;;;;5063238;28;19984;-69
2022/11/16 02:32:14;;;;;;;;;;;8.30;99.90;;;;;;5063431;28;20156;-68
2022/11/16 02:34:42;;;;;;;;;;;8.30;99.90;;;;;;5062704;28;20223;-71
2022/11/16 02:37:11;;;;;;;;;;;8.30;99.90;;;;;;5062988;28;19960;-68
2022/11/16 02:39:38;;;;;;;;;;;8.30;99.90;;;;;;5063367;28;20165;-68
2022/11/16 02:42:08;;;;;;;;;;;8.30;99.90;;;;;;5063404;28;19992;-69
2022/11/16 02:44:36;;;;;;;;;;;8.30;99.90;;;;;;5062935;28;19948;-68
2022/11/16 02:47:04;;;;;;;;;;;8.30;99.90;;;;;;5063082;28;19988;-68
2022/11/16 02:49:33;;;;;;;;;;;8.30;99.90;;;;;;5063108;28;19952;-69
2022/11/16 02:52:00;;;;;;;;;;;8.30;99.90;;;;;;5063243;28;19928;-69
2022/11/16 02:54:27;;;;;;;;;;;8.30;99.90;;;;;;5062911;28;20302;-68
2022/11/16 02:56:56;;;;;;;;;;;8.30;99.90;;;;;;5062780;28;19992;-68
2022/11/16 02:59:24;;;;;;;;;;;8.30;99.90;;;;;;5063158;28;19955;-68
2022/11/16 03:01:54;;;;;;;;;;;8.30;99.90;;;;;;5063186;28;19960;-69
2022/11/16 03:04:25;;;;;;;;;;;8.30;99.90;;;;;;5062808;28;20275;-68
2022/11/16 03:06:53;;;;;;;;;;;8.30;99.90;;;;;;5062816;28;19988;-69
2022/11/16 03:09:22;;;;;;;;;;;8.30;99.90;;;;;;5063012;28;20004;-68
2022/11/16 03:11:58;;;;;;;;;;;8.30;99.90;;;;;;5062808;28;20263;-68
2022/11/16 03:14:26;;;;;;;;;;;8.30;99.90;;;;;;5062640;28;20208;-68
2022/11/16 03:16:55;;;;;;;;;;;8.30;99.90;;;;;;5062461;28;19971;-68
2022/11/16 03:19:25;;;;;;;;;;;8.30;99.90;;;;;;5062812;28;19987;-68
2022/11/16 03:21:55;;;;;;;;;;;8.30;99.90;;;;;;5062948;28;19987;-68
2022/11/16 03:24:22;;;;;;;;;;;8.30;99.90;;;;;;5062574;28;20438;-69
2022/11/16 03:26:51;;;;;;;;;;;8.30;99.90;;;;;;5062696;28;20172;-68
2022/11/16 03:29:21;;;;;;;;;;;8.30;99.90;;;;;;5062934;28;19921;-68
2022/11/16 03:31:49;;;;;;;;;;;8.30;99.90;;;;;;5066469;28;19956;-68
2022/11/16 03:34:18;;;;;;;;;;;8.30;99.90;;;;;;5066356;28;19921;-68
2022/11/16 03:36:48;;;;;;;;;;;8.40;99.90;;;;;;5066135;28;19956;-67
2022/11/16 03:39:17;;;;;;;;;;;8.40;99.90;;;;;;5066371;28;19998;-68
2022/11/16 03:41:44;;;;;;;;;;;8.40;99.90;;;;;;5066255;28;19948;-68
2022/11/16 03:44:12;;;;;;;;;;;8.40;99.90;;;;;;5065902;28;19952;-68
2022/11/16 03:46:39;;;;;;;;;;;8.40;99.90;;;;;;5065706;28;20117;-68
2022/11/16 03:49:06;;;;;;;;;;;8.30;99.90;;;;;;5065808;28;20264;-68
2022/11/16 03:51:33;;;;;;;;;;;8.40;99.90;;;;;;5065930;28;20149;-68
2022/11/16 03:54:01;;;;;;;;;;;8.30;99.90;;;;;;5065746;28;20240;-68
2022/11/16 03:56:27;;;;;;;;;;;8.20;99.90;;;;;;5065295;28;19984;-67
2022/11/16 03:58:54;;;;;;;;;;;8.10;99.90;;;;;;5066068;28;19984;-68
2022/11/16 04:01:21;;;;;;;;;;;8.20;99.90;;;;;;5065878;28;19954;-68
2022/11/16 04:03:47;;;;;;;;;;;8.10;99.90;;;;;;5065859;28;19963;-68
2022/11/16 04:25:31;;;;;;;;;;;8.10;99.90;;;;;;5064819;28;19974;-68
2022/11/16 04:28:15;;;;;;;;;;;8.20;99.90;;;;;;5065264;28;19952;-68
2022/11/16 04:38:56;;;;;;;;;;;8.20;99.90;;;;;;5064817;28;19923;-68
2022/11/16 04:44:09;;;;;;;;;;;8.20;99.90;;;;;;5064954;28;20000;-69
2022/11/16 04:49:20;;;;;;;;;;;8.30;99.90;;;;;;5064648;28;19971;-68
2022/11/16 04:51:47;;;;;;;;;;;8.30;99.90;;;;;;5064443;28;19995;-68
2022/11/16 04:54:13;;;;;;;;;;;8.20;99.90;;;;;;5064628;28;19921;-68
2022/11/16 04:56:40;;;;;;;;;;;8.20;99.90;;;;;;5064351;28;19992;-68
2022/11/16 04:59:07;;;;;;;;;;;8.20;99.90;;;;;;5064654;28;20001;-68
2022/11/16 05:04:18;;;;;;;;;;;8.20;99.90;;;;;;5064802;28;19967;-68
2022/11/16 05:06:45;;;;;;;;;;;8.20;99.90;;;;;;5064792;28;19960;-68
2022/11/16 05:09:12;;;;;;;;;;;8.10;99.90;;;;;;5064959;28;19921;-69
2022/11/16 05:11:39;;;;;;;;;;;8.10;99.90;;;;;;5064363;28;19988;-68
2022/11/16 05:14:05;;;;;;;;;;;8.10;99.90;;;;;;5064330;28;19975;-68
2022/11/16 05:16:32;;;;;;;;;;;8.10;99.90;;;;;;5063541;28;20235;-68
2022/11/16 05:21:58;;;;;;;;;;;8.20;99.90;;;;;;5007404;28;19985;-68
2022/11/16 05:24:34;;;;;;;;;;;8.10;99.90;;;;;;5002720;28;20269;-68
2022/11/16 05:27:00;;;;;;;;;;;8.10;99.90;;;;;;5023114;28;19957;-68
2022/11/16 05:29:27;;;;;;;;;;;8.10;99.90;;;;;;5043874;28;19956;-69
2022/11/16 05:31:54;;;;;;;;;;;8.10;99.90;;;;;;5044098;28;19992;-67
2022/11/16 05:34:21;;;;;;;;;;;8.10;99.90;;;;;;5044084;28;19988;-68
2022/11/16 05:36:48;;;;;;;;;;;8.10;99.90;;;;;;5043811;28;19953;-68
2022/11/16 05:39:15;;;;;;;;;;;8.10;99.90;;;;;;5043830;28;19957;-68
2022/11/16 05:41:41;;;;;;;;;;;8.10;99.90;;;;;;5044087;28;19984;-68
2022/11/16 05:44:08;;;;;;;;;;;8.10;99.90;;;;;;5059799;28;19979;-67
2022/11/16 05:46:35;;;;;;;;;;;8.10;99.90;;;;;;5063443;28;19984;-68
2022/11/16 05:49:01;;;;;;;;;;;8.10;99.90;;;;;;5063248;28;20249;-68
2022/11/16 05:51:29;;;;;;;;;;;8.10;99.90;;;;;;5043635;28;19921;-68
2022/11/16 05:53:56;;;;;;;;;;;8.10;99.90;;;;;;5042848;28;19963;-67
2022/11/16 05:56:22;;;;;;;;;;;8.20;99.90;;;;;;5043434;28;19953;-67
2022/11/16 05:58:49;;;;;;;;;;;8.20;99.90;;;;;;5043589;28;19984;-67
2022/11/16 06:01:16;;;;;;;;;;;8.20;99.90;;;;;;5043587;28;19984;-68
2022/11/16 06:03:42;;;;;;;;;;;8.20;99.90;;;;;;5043620;28;19964;-68
2022/11/16 06:06:09;;;;;;;;;;;8.10;99.90;;;;;;5043318;28;19992;-68
2022/11/16 06:08:37;;;;;;;;;;;8.20;99.90;;;;;;5042820;28;20164;-68
2022/11/16 06:11:05;;;;;;;;;;;8.20;99.90;;;;;;5043171;28;20238;-68
2022/11/16 06:13:32;;;;;;;;;;;8.20;99.90;;;;;;5043435;28;19957;-67
2022/11/16 06:15:59;;;;;;;;;;;8.10;99.90;;;;;;5042087;28;19984;-68
2022/11/16 06:18:27;;;;;;;;;;;8.10;99.90;;;;;;5042855;28;19984;-68
2022/11/16 06:20:54;;;;;;;;;;;8.10;99.90;;;;;;5051385;28;19921;-69
2022/11/16 06:23:20;;;;;;;;;;;8.10;99.90;;;;;;5063534;28;19984;-69
2022/11/16 06:25:51;;;;;;;;;;;8.10;99.90;;;;;;5062538;28;20271;-67
2022/11/16 06:28:18;;;;;;;;;;;8.10;99.90;;;;;;5063289;28;20156;-71
2022/11/16 06:30:45;;;;;;;;;;;8.20;99.90;;;;;;5063314;28;19983;-68
2022/11/16 06:33:11;;;;;;;;;;;8.20;99.90;;;;;;5063293;28;19955;-68
2022/11/16 06:35:38;;;;;;;;;;;8.10;99.90;;;;;;5063016;28;20193;-68
2022/11/16 06:38:04;;;;;;;;;;;8.20;99.90;;;;;;5062833;28;19989;-68
2022/11/16 06:40:31;;;;;;;;;;;8.20;99.90;;;;;;5062992;28;19992;-67
2022/11/16 06:42:59;;;;;;;;;;;8.20;99.90;;;;;;5063142;28;19921;-68
2022/11/16 06:45:26;;;;;;;;;;;8.10;99.90;;;;;;5062476;28;19952;-70
2022/11/16 06:47:53;;;;;;;;;;;8.20;99.90;;;;;;5062825;28;20284;-67
2022/11/16 06:50:20;;;;;;;;;;;8.10;99.90;;;;;;5063077;28;19956;-68
2022/11/16 06:52:46;;;;;;;;;;;8.10;99.90;;;;;;5062938;28;19992;-68
2022/11/16 06:55:13;;;;;;;;;;;8.20;99.90;;;;;;5062868;28;20168;-68
2022/11/16 06:57:40;;;;;;;;;;;8.10;99.90;;;;;;5062959;28;20284;-69
2022/11/16 07:00:10;;;;;;;;;;;8.10;99.90;;;;;;5062655;28;19992;-68
2022/11/16 07:02:37;;;;;;;;;;;8.10;99.90;;;;;;5062707;28;19966;-68
2022/11/16 07:05:04;;;;;;;;;;;8.10;99.90;;;;;;5065501;28;19927;-67
2022/11/16 07:07:30;;;;;;;;;;;8.20;99.90;;;;;;5066763;28;19984;-68
2022/11/16 07:09:57;;;;;;;;;;;8.10;99.90;;;;;;5066572;28;20232;-67
2022/11/16 07:12:24;;;;;;;;;;;8.10;99.90;;;;;;5066331;28;19973;-67
2022/11/16 07:14:50;;;;;;;;;;;8.10;99.90;;;;;;5066321;28;19944;-68
2022/11/16 07:17:18;;;;;;;;;;;8.10;99.90;;;;;;5066275;28;19984;-68
2022/11/16 07:19:45;;;;;;;;;;;8.10;99.90;;;;;;5066173;28;19980;-68
2022/11/16 07:22:12;;;;;;;;;;;8.10;99.90;;;;;;5066371;28;20001;-67
2022/11/16 07:24:38;;;;;;;;;;;8.10;99.90;;;;;;5065951;28;19984;-67
2022/11/16 07:27:06;;;;;;;;;;;8.10;99.90;;;;;;5062842;28;20299;-67
2022/11/16 07:29:33;;;;;;;;;;;8.10;99.90;;;;;;5061113;28;19927;-68
2022/11/16 07:32:00;;;;;;;;;;;8.20;99.90;;;;;;5061323;28;19994;-67
2022/11/16 07:34:28;;;;;;;;;;;8.20;99.90;;;;;;5066281;28;19984;-68
2022/11/16 07:36:54;;;;;;;;;;;8.20;99.90;;;;;;5065569;28;19992;-67
2022/11/16 07:39:21;;;;;;;;;;;8.20;99.90;;;;;;5065741;28;19991;-68
2022/11/16 07:41:49;;;;;;;;;;;8.20;99.90;;;;;;5066067;28;19963;-68
2022/11/16 07:44:15;;;;;;;;;;;8.20;99.90;;;;;;5065765;28;19927;-68
2022/11/16 07:46:43;;;;;;;;;;;8.20;99.90;;;;;;5064211;28;19927;-67
2022/11/16 07:49:13;;;;;;;;;;;8.20;99.90;;;;;;5065339;28;19983;-67
2022/11/16 07:51:41;;;;;;;;;;;8.20;99.90;;;;;;5065419;28;20004;-67
2022/11/16 07:54:10;;;;;;;;;;;8.20;99.90;;;;;;5065444;28;19956;-67
2022/11/16 07:56:37;;;;;;;;;;;8.20;99.90;;;;;;5065440;28;20247;-68
2022/11/16 07:59:04;;;;;;;;;;;8.20;99.90;;;;;;5065457;28;19927;-68
2022/11/16 08:01:31;;;;;;;;;;;8.20;99.90;;;;;;5065914;28;19920;-67
2022/11/16 08:04:00;;;;;;;;;;;8.20;99.90;;;;;;5066047;28;19959;-68
2022/11/16 08:06:27;;;;;;;;;;;8.30;99.90;;;;;;5065335;28;19924;-68
2022/11/16 08:08:56;;;;;;;;;;;8.30;99.90;;;;;;5065508;28;19952;-67
2022/11/16 08:11:23;;;;;;;;;;;8.20;99.90;;;;;;5065451;28;19952;-67
2022/11/16 08:13:49;;;;;;;;;;;8.30;99.90;;;;;;5065233;28;19988;-67
2022/11/16 08:16:17;;;;;;;;;;;8.30;99.90;;;;;;5064291;28;19963;-67
2022/11/16 08:18:44;;;;;;;;;;;8.30;99.90;;;;;;5065371;28;19928;-67
2022/11/16 08:21:12;;;;;;;;;;;8.40;99.90;;;;;;5065341;28;20184;-67
2022/11/16 08:23:39;;;;;;;;;;;8.40;99.90;;;;;;5065120;28;19921;-68
2022/11/16 08:26:09;;;;;;;;;;;8.40;99.90;;;;;;5064741;28;19921;-67
2022/11/16 08:28:37;;;;;;;;;;;8.40;99.90;;;;;;5065326;28;20178;-68
2022/11/16 08:31:07;;;;;;;;;;;8.50;99.90;;;;;;5065016;28;20252;-68
2022/11/16 08:33:34;;;;;;;;;;;8.50;99.90;;;;;;5065167;28;19927;-68
2022/11/16 08:36:03;;;;;;;;;;;8.50;99.90;;;;;;5064728;28;19983;-67
2022/11/16 08:38:29;;;;;;;;;;;8.50;99.90;;;;;;5065091;28;19927;-68
2022/11/16 08:40:56;;;;;;;;;;;8.60;99.90;;;;;;5065164;28;19963;-67
2022/11/16 08:43:24;;;;;;;;;;;8.60;99.90;;;;;;5064862;28;20358;-67
2022/11/16 08:45:52;;;;;;;;;;;8.70;99.90;;;;;;5064231;28;19956;-67
2022/11/16 08:48:19;;;;;;;;;;;8.60;99.90;;;;;;5064645;28;20219;-67
2022/11/16 08:50:45;;;;;;;;;;;8.60;99.90;;;;;;5064708;28;19989;-68
2022/11/16 08:53:14;;;;;;;;;;;8.70;99.90;;;;;;5064893;28;19988;-67
2022/11/16 08:55:40;;;;;;;;;;;8.70;99.90;;;;;;5064605;28;20247;-68
2022/11/16 08:58:07;;;;;;;;;;;8.70;99.90;;;;;;5064746;28;19952;-67
2022/11/16 09:00:35;;;;;;;;;;;8.80;99.90;;;;;;5064784;28;19957;-67
2022/11/16 09:03:02;;;;;;;;;;;8.80;99.90;;;;;;5064796;28;19948;-67
2022/11/16 09:05:28;;;;;;;;;;;8.90;99.90;;;;;;5064482;28;19949;-68
2022/11/16 09:07:55;;;;;;;;;;;8.90;99.90;;;;;;5064427;28;19959;-68
2022/11/16 09:10:24;;;;;;;;;;;8.90;99.90;;;;;;5062221;28;19963;-67
2022/11/16 09:12:51;;;;;;;;;;;8.90;99.90;;;;;;5055987;28;19930;-68
2022/11/16 09:15:18;;;;;;;;;;;9.00;99.90;;;;;;5055148;28;19992;-68
2022/11/16 09:17:46;;;;;;;;;;;9.00;99.90;;;;;;5063964;28;20228;-67
2022/11/16 09:20:12;;;;;;;;;;;9.00;99.90;;;;;;5064346;28;19983;-67
2022/11/16 09:22:39;;;;;;;;;;;9.00;99.90;;;;;;5064411;28;20169;-67
2022/11/16 09:25:08;;;;;;;;;;;9.00;99.90;;;;;;5058135;28;19992;-67
2022/11/16 09:27:35;;;;;;;;;;;9.00;99.90;;;;;;5061781;28;19928;-67
2022/11/16 09:30:01;;;;;;;;;;;9.00;99.90;;;;;;5063923;28;20094;-67
2022/11/16 09:32:28;;;;;;;;;;;9.10;99.90;;;;;;5063688;28;19967;-67
2022/11/16 09:34:56;;;;;;;;;;;9.00;99.90;;;;;;5063792;28;19959;-67
2022/11/16 09:37:23;;;;;;;;;;;9.10;99.90;;;;;;5063155;28;19974;-67
2022/11/16 09:39:49;;;;;;;;;;;9.10;99.90;;;;;;5064053;28;19986;-68
2022/11/16 09:42:21;;;;;;;;;;;9.10;99.90;;;;;;5063891;28;19929;-67
2022/11/16 09:45:03;;;;;;;;;;;9.10;99.90;;;;;;5063558;28;19956;-67
2022/11/16 09:47:41;;;;;;;;;;;9.10;99.90;;;;;;5063498;28;20266;-68
2022/11/16 09:50:16;;;;;;;;;;;9.10;99.90;;;;;;5063518;28;20227;-68
2022/11/16 09:52:45;;;;;;;;;;;9.10;99.90;;;;;;5063668;28;19963;-67
2022/11/16 09:55:20;;;;;;;;;;;9.20;99.90;;;;;;5078087;28;22015;-68
2022/11/16 09:57:47;;;;;;;;;;;9.20;99.90;;;;;;5063508;28;19989;-68
2022/11/16 10:00:18;;;;;;;;;;;9.20;99.90;;;;;;5063054;28;19920;-68
2022/11/16 10:02:47;;;;;;;;;;;9.20;99.90;;;;;;5063667;28;19952;-68
2022/11/16 10:05:18;;;;;;;;;;;9.20;99.90;;;;;;5063409;28;19988;-68
2022/11/16 10:07:47;;;;;;;;;;;9.30;99.90;;;;;;5063577;28;19965;-68
2022/11/16 10:10:14;;;;;;;;;;;9.30;99.90;;;;;;5063531;28;19928;-67
2022/11/16 10:12:42;;;;;;;;;;;9.30;99.90;;;;;;5063201;28;19983;-67
2022/11/16 10:15:30;;;;;;;;;;;9.40;99.90;;;;;;5063359;28;19928;-67
2022/11/16 10:18:04;;;;;;;;;;;9.50;99.90;;;;;;5063280;28;20047;-67
2022/11/16 10:20:41;;;;;;;;;;;9.60;99.90;;;;;;5063156;28;19963;-67
2022/11/16 10:23:11;;;;;;;;;;;9.70;99.90;;;;;;5045040;28;19984;-68
2022/11/16 10:25:41;;;;;;;;;;;9.90;99.90;;;;;;5061358;28;20003;-67
2022/11/16 10:28:16;;;;;;;;;;;10.00;99.90;;;;;;5062035;28;19959;-68
2022/11/16 10:30:45;;;;;;;;;;;10.10;99.90;;;;;;5063261;28;19921;-68
2022/11/16 10:33:14;;;;;;;;;;;10.20;99.90;;;;;;5063222;28;20164;-67
2022/11/16 10:35:45;;;;;;;;;;;10.20;99.90;;;;;;5060417;28;19921;-68
2022/11/16 10:38:13;;;;;;;;;;;10.20;99.90;;;;;;5055012;28;19939;-67
2022/11/16 10:40:41;;;;;;;;;;;10.30;99.90;;;;;;5066930;28;20117;-68
2022/11/16 10:43:12;;;;;;;;;;;10.30;99.90;;;;;;5067327;28;19921;-68
2022/11/16 10:45:39;;;;;;;;;;;10.40;99.90;;;;;;5067083;28;19928;-68
2022/11/16 10:48:12;;;;;;;;;;;10.40;99.90;;;;;;5067344;28;19984;-67
2022/11/16 10:50:40;;;;;;;;;;;10.50;99.90;;;;;;5066882;28;20495;-67
2022/11/16 10:53:11;;;;;;;;;;;10.50;99.90;;;;;;5066903;28;19987;-68
2022/11/16 10:55:38;;;;;;;;;;;10.60;99.90;;;;;;5066935;28;20153;-67
2022/11/16 10:58:06;;;;;;;;;;;10.60;99.90;;;;;;5067090;28;19967;-67
2022/11/16 11:00:37;;;;;;;;;;;10.70;99.90;;;;;;5065363;28;20432;-67
2022/11/16 11:03:03;;;;;;;;;;;10.80;99.90;;;;;;5065231;28;19980;-67
2022/11/16 11:05:30;;;;;;;;;;;11.00;99.90;;;;;;5065386;28;19991;-68
2022/11/16 11:08:01;;;;;;;;;;;11.20;99.90;;;;;;5066630;28;19992;-67
2022/11/16 11:10:30;;;;;;;;;;;11.30;99.90;;;;;;5066812;28;19928;-67
2022/11/16 11:13:15;;;;;;;;;;;11.30;99.90;;;;;;5066440;28;20339;-68
2022/11/16 11:15:43;;;;;;;;;;;11.40;99.90;;;;;;5066574;28;19963;-69
2022/11/16 11:18:11;;;;;;;;;;;11.40;99.90;;;;;;5066344;28;19952;-67
2022/11/16 11:20:40;;;;;;;;;;;11.40;99.90;;;;;;5066101;28;19924;-67
2022/11/16 11:23:11;;;;;;;;;;;11.50;99.90;;;;;;5066646;28;19924;-67
2022/11/16 11:25:41;;;;;;;;;;;11.60;99.90;;;;;;5066064;28;19988;-67
2022/11/16 11:28:16;;;;;;;;;;;11.70;99.90;;;;;;5066681;28;19952;-67
2022/11/16 11:30:51;;;;;;;;;;;11.70;99.90;;;;;;5066892;28;19959;-67
2022/11/16 11:33:19;;;;;;;;;;;11.70;99.90;;;;;;5067426;28;20001;-67
2022/11/16 11:35:55;;;;;;;;;;;11.60;99.90;;;;;;5067039;28;19921;-68
2022/11/16 11:38:22;;;;;;;;;;;11.60;99.90;;;;;;5065785;28;19991;-67
2022/11/16 11:40:56;;;;;;;;;;;11.60;99.90;;;;;;5066178;28;20203;-67
2022/11/16 11:43:24;;;;;;;;;;;11.70;99.90;;;;;;5066134;28;20097;-68
2022/11/16 11:45:54;;;;;;;;;;;11.70;99.90;;;;;;5065522;28;19920;-67
2022/11/16 11:48:24;;;;;;;;;;;11.70;99.90;;;;;;5065116;28;19920;-67
2022/11/16 11:50:53;;;;;;;;;;;11.60;99.90;;;;;;5064799;28;19920;-67
2022/11/16 11:53:24;;;;;;;;;;;11.60;99.90;;;;;;5065778;28;19991;-67
2022/11/16 11:55:55;;;;;;;;;;;11.60;99.90;;;;;;5065104;28;19964;-67
2022/11/16 11:58:26;;;;;;;;;;;11.70;99.90;;;;;;5065930;28;19929;-67
2022/11/16 12:00:58;;;;;;;;;;;11.80;99.90;;;;;;5066030;28;19963;-67
2022/11/16 12:03:45;;;;;;;;;;;11.80;99.90;;;;;;5065855;28;20169;-68
2022/11/16 12:06:18;;;;;;;;;;;11.90;99.90;;;;;;5065477;28;19920;-67
2022/11/16 12:08:54;;;;;;;;;;;12.10;99.90;;;;;;5065692;28;19999;-67
2022/11/16 12:11:25;;;;;;;;;;;12.30;99.90;;;;;;5065691;28;19983;-68
2022/11/16 12:14:00;;;;;;;;;;;12.40;99.90;;;;;;5065417;28;19991;-67
2022/11/16 12:16:32;;;;;;;;;;;12.50;99.90;;;;;;5064103;28;19960;-67
2022/11/16 12:19:11;;;;;;;;;;;12.60;99.90;;;;;;5065474;28;19928;-68
2022/11/16 12:21:43;;;;;;;;;;;12.70;99.90;;;;;;5065278;28;19921;-67
2022/11/16 12:24:16;;;;;;;;;;;12.70;99.90;;;;;;5060405;28;19956;-68
2022/11/16 12:26:48;;;;;;;;;;;12.70;99.90;;;;;;5053307;28;20274;-68
2022/11/16 12:29:24;;;;;;;;;;;12.60;99.90;;;;;;5045264;28;20440;-67
2022/11/16 12:32:00;;;;;;;;;;;12.50;99.90;;;;;;5051101;28;19928;-68
2022/11/16 12:34:32;;;;;;;;;;;12.40;99.90;;;;;;5064829;28;19987;-67
2022/11/16 12:37:02;;;;;;;;;;;12.20;99.90;;;;;;5064909;28;19988;-67
2022/11/16 12:39:34;;;;;;;;;;;12.00;99.90;;;;;;5064185;28;19963;-67
2022/11/16 12:42:15;;;;;;;;;;;11.90;99.90;;;;;;5064966;28;19952;-67
2022/11/16 12:45:04;;;;;;;;;;;11.90;99.90;;;;;;5064340;28;20260;-67
2022/11/16 12:47:38;;;;;;;;;;;12.00;99.90;;;;;;5047232;28;19960;-67
2022/11/16 12:50:08;;;;;;;;;;;12.10;99.90;;;;;;5064963;28;19952;-67
2022/11/16 12:52:44;;;;;;;;;;;12.10;99.90;;;;;;5064826;28;19984;-67
2022/11/16 12:55:17;;;;;;;;;;;12.40;99.90;;;;;;5064690;28;19999;-68
2022/11/16 12:57:47;;;;;;;;;;;12.80;99.90;;;;;;5064535;28;19983;-69
2022/11/16 13:00:14;;;;;;;;;;;13.10;99.90;;;;;;5064450;28;20382;-67
2022/11/16 13:02:49;;;;;;;;;;;13.30;99.90;;;;;;5064527;28;19963;-68
2022/11/16 13:05:18;;;;;;;;;;;13.30;99.90;;;;;;5064402;28;19952;-68
2022/11/16 13:07:47;;;;;;;;;;;13.30;99.90;;;;;;5064651;28;19956;-68
2022/11/16 13:10:16;;;;;;;;;;;13.10;99.90;;;;;;5064515;28;19980;-68
2022/11/16 13:12:44;;;;;;;;;;;13.00;99.90;;;;;;5064575;28;19984;-68
2022/11/16 13:15:17;;;;;;;;;;;12.90;99.90;;;;;;5064103;28;20180;-67
2022/11/16 13:17:48;;;;;;;;;;;12.80;99.90;;;;;;5063969;28;19921;-68
2022/11/16 13:20:24;;;;;;;;;;;12.60;99.90;;;;;;5064279;28;19928;-68
2022/11/16 13:22:52;;;;;;;;;;;12.50;99.90;;;;;;5064389;28;19956;-68
2022/11/16 13:25:21;;;;;;;;;;;12.50;99.90;;;;;;5063744;28;19921;-68
2022/11/16 13:27:49;;;;;;;;;;;12.60;99.90;;;;;;5064328;28;19984;-67
2022/11/16 13:30:17;;;;;;;;;;;12.60;99.90;;;;;;5064330;28;19956;-68
2022/11/16 13:32:56;;;;;;;;;;;12.50;99.90;;;;;;5063756;28;19928;-68
2022/11/16 13:35:23;;;;;;;;;;;12.40;99.90;;;;;;5063723;28;19928;-68
2022/11/16 13:37:50;;;;;;;;;;;12.40;99.90;;;;;;5064103;28;19992;-68
2022/11/16 13:40:25;;;;;;;;;;;12.20;99.90;;;;;;5063771;28;20026;-68
2022/11/16 13:42:58;;;;;;;;;;;12.00;99.90;;;;;;5064263;28;19956;-69
2022/11/16 13:45:27;;;;;;;;;;;11.90;99.90;;;;;;5063459;28;19976;-69
2022/11/16 13:47:56;;;;;;;;;;;11.90;99.90;;;;;;5063512;28;19921;-68
2022/11/16 13:50:25;;;;;;;;;;;11.80;99.90;;;;;;5063625;28;19952;-69
2022/11/16 13:52:56;;;;;;;;;;;11.70;99.90;;;;;;5063498;28;19956;-68
2022/11/16 13:55:27;;;;;;;;;;;11.70;99.90;;;;;;5063782;28;19980;-68
2022/11/16 13:57:55;;;;;;;;;;;11.70;99.90;;;;;;5063741;28;20000;-68
2022/11/16 14:00:23;;;;;;;;;;;11.70;99.90;;;;;;5063848;28;19988;-68
2022/11/16 14:03:09;;;;;;;;;;;11.80;99.90;;;;;;5063749;28;19921;-68
2022/11/16 14:05:41;;;;;;;;;;;11.80;99.90;;;;;;5062985;28;19984;-68
2022/11/16 14:08:22;;;;;;;;;;;11.80;99.90;;;;;;5063480;28;19927;-68
2022/11/16 14:10:59;;;;;;;;;;;11.70;99.90;;;;;;5063341;28;19983;-69
2022/11/16 14:13:36;;;;;;;;;;;11.60;99.90;;;;;;5062904;28;19921;-68
2022/11/16 14:16:18;;;;;;;;;;;11.50;99.90;;;;;;5063278;28;19995;-69
2022/11/16 14:18:45;;;;;;;;;;;11.50;99.90;;;;;;5063085;28;19920;-69
2022/11/16 14:21:20;;;;;;;;;;;11.50;99.90;;;;;;5063647;28;19956;-68
2022/11/16 14:23:57;;;;;;;;;;;11.40;99.90;;;;;;5063223;28;19928;-68
2022/11/16 14:26:27;;;;;;;;;;;11.40;99.90;;;;;;5062753;28;19988;-68
2022/11/16 14:29:11;;;;;;;;;;;11.40;99.90;;;;;;5063698;28;19985;-68
2022/11/16 14:31:49;;;;;;;;;;;11.30;99.90;;;;;;5063475;28;19920;-68
2022/11/16 14:34:17;;;;;;;;;;;11.30;99.90;;;;;;5063293;28;19966;-68
2022/11/16 14:36:46;;;;;;;;;;;11.20;99.90;;;;;;5062763;28;19963;-68
2022/11/16 14:39:14;;;;;;;;;;;11.20;99.90;;;;;;5060317;28;19983;-68
2022/11/16 14:41:43;;;;;;;;;;;11.20;99.90;;;;;;5043479;28;20137;-68
2022/11/16 14:44:10;;;;;;;;;;;11.20;99.90;;;;;;5046352;28;19976;-68
2022/11/16 14:46:37;;;;;;;;;;;11.20;99.90;;;;;;5062716;28;20258;-68
2022/11/16 14:49:04;;;;;;;;;;;11.20;99.90;;;;;;5063068;28;19921;-68
2022/11/16 14:51:32;;;;;;;;;;;11.20;99.90;;;;;;5063125;28;19985;-68
2022/11/16 14:54:01;;;;;;;;;;;11.10;99.90;;;;;;5063177;28;20008;-68
2022/11/16 14:56:28;;;;;;;;;;;11.20;99.90;;;;;;5062450;28;19988;-69
2022/11/16 14:58:55;;;;;;;;;;;11.10;99.90;;;;;;5062921;28;19992;-68
2022/11/16 15:01:23;;;;;;;;;;;11.00;99.90;;;;;;5054683;28;19921;-69
2022/11/16 15:03:53;;;;;;;;;;;11.00;99.90;;;;;;5062795;28;20212;-68
2022/11/16 15:06:19;;;;;;;;;;;11.00;99.90;;;;;;5062992;28;19975;-68
2022/11/16 15:08:48;;;;;;;;;;;11.00;99.90;;;;;;5058828;28;19955;-69
2022/11/16 15:11:20;;;;;;;;;;;11.00;99.90;;;;;;5050718;28;20175;-68
2022/11/16 15:13:47;;;;;;;;;;;11.00;99.90;;;;;;5051494;28;19960;-68
2022/11/16 15:16:16;;;;;;;;;;;10.90;99.90;;;;;;5046901;28;19979;-68
2022/11/16 15:18:55;;;;;;;;;;;10.90;99.90;;;;;;5043133;28;19984;-68
2022/11/16 15:21:22;;;;;;;;;;;10.90;99.90;;;;;;5044658;28;20173;-68